sensor_id;sensor_type;location;lat;lon;timestamp;temperature;humidity
27559;DHT22;15002;52.028;5.670;2023-07-16T00:00:04;22.30;98.00
27559;DHT22;15002;52.028;5.670;2023-07-16T00:02:30;22.20;97.10
27559;DHT22;15002;52.028;5.670;2023-07-16T00:04:56;22.40;96.90
27559;DHT22;15002;52.028;5.670;2023-07-16T00:07:21;22.50;96.50
27559;DHT22;15002;52.028;5.670;2023-07-16T00:09:47;22.40;95.70
27559;DHT22;15002;52.028;5.670;2023-07-16T00:12:13;22.30;95.50
27559;DHT22;15002;52.028;5.670;2023-07-16T00:14:38;22.40;95.40
27559;DHT22;15002;52.028;5.670;2023-07-16T00:17:04;22.50;94.80
27559;DHT22;15002;52.028;5.670;2023-07-16T00:19:29;22.50;94.40
27559;DHT22;15002;52.028;5.670;2023-07-16T00:21:55;22.60;94.50
27559;DHT22;15002;52.028;5.670;2023-07-16T00:24:21;22.60;94.20
27559;DHT22;15002;52.028;5.670;2023-07-16T00:26:46;22.60;94.30
27559;DHT22;15002;52.028;5.670;2023-07-16T00:29:12;22.60;94.00
27559;DHT22;15002;52.028;5.670;2023-07-16T00:31:37;22.50;93.90
27559;DHT22;15002;52.028;5.670;2023-07-16T00:34:03;22.70;93.90
27559;DHT22;15002;52.028;5.670;2023-07-16T00:36:29;22.80;93.20
27559;DHT22;15002;52.028;5.670;2023-07-16T00:38:54;22.70;93.40
27559;DHT22;15002;52.028;5.670;2023-07-16T00:41:20;22.70;93.40
27559;DHT22;15002;52.028;5.670;2023-07-16T00:43:45;22.80;93.40
27559;DHT22;15002;52.028;5.670;2023-07-16T00:46:12;22.60;93.90
27559;DHT22;15002;52.028;5.670;2023-07-16T00:48:38;22.70;93.80
27559;DHT22;15002;52.028;5.670;2023-07-16T00:51:05;22.70;94.00
27559;DHT22;15002;52.028;5.670;2023-07-16T00:53:31;22.60;94.50
27559;DHT22;15002;52.028;5.670;2023-07-16T00:55:57;22.40;95.00
27559;DHT22;15002;52.028;5.670;2023-07-16T00:58:22;22.30;95.40
27559;DHT22;15002;52.028;5.670;2023-07-16T01:00:48;22.10;96.10
27559;DHT22;15002;52.028;5.670;2023-07-16T01:03:14;22.20;96.50
27559;DHT22;15002;52.028;5.670;2023-07-16T01:08:20;22.30;96.70
27559;DHT22;15002;52.028;5.670;2023-07-16T01:10:48;22.20;96.60
27559;DHT22;15002;52.028;5.670;2023-07-16T01:13:15;22.10;96.80
27559;DHT22;15002;52.028;5.670;2023-07-16T01:15:40;21.90;97.40
27559;DHT22;15002;52.028;5.670;2023-07-16T01:18:06;21.90;98.00
27559;DHT22;15002;52.028;5.670;2023-07-16T01:20:32;22.00;97.30
27559;DHT22;15002;52.028;5.670;2023-07-16T01:26:14;22.00;97.20
27559;DHT22;15002;52.028;5.670;2023-07-16T01:29:04;21.80;97.60
27559;DHT22;15002;52.028;5.670;2023-07-16T01:31:31;21.80;98.00
27559;DHT22;15002;52.028;5.670;2023-07-16T01:33:59;21.70;98.30
27559;DHT22;15002;52.028;5.670;2023-07-16T01:36:25;21.60;98.60
27559;DHT22;15002;52.028;5.670;2023-07-16T01:38:52;21.70;98.40
27559;DHT22;15002;52.028;5.670;2023-07-16T01:41:17;21.70;98.50
27559;DHT22;15002;52.028;5.670;2023-07-16T01:43:44;21.60;98.50
27559;DHT22;15002;52.028;5.670;2023-07-16T01:46:09;21.70;98.50
27559;DHT22;15002;52.028;5.670;2023-07-16T01:48:37;21.70;98.50
27559;DHT22;15002;52.028;5.670;2023-07-16T01:51:04;21.70;98.20
27559;DHT22;15002;52.028;5.670;2023-07-16T01:53:30;21.60;98.80
27559;DHT22;15002;52.028;5.670;2023-07-16T01:55:57;21.70;98.40
27559;DHT22;15002;52.028;5.670;2023-07-16T01:58:23;21.50;98.70
27559;DHT22;15002;52.028;5.670;2023-07-16T02:00:50;21.40;99.10
27559;DHT22;15002;52.028;5.670;2023-07-16T02:03:15;21.40;99.10
27559;DHT22;15002;52.028;5.670;2023-07-16T02:05:41;21.30;99.60
27559;DHT22;15002;52.028;5.670;2023-07-16T02:08:07;21.40;99.40
27559;DHT22;15002;52.028;5.670;2023-07-16T02:10:32;21.40;99.40
27559;DHT22;15002;52.028;5.670;2023-07-16T02:12:58;21.30;99.70
27559;DHT22;15002;52.028;5.670;2023-07-16T02:15:24;21.20;99.90
27559;DHT22;15002;52.028;5.670;2023-07-16T02:17:50;21.10;99.90
27559;DHT22;15002;52.028;5.670;2023-07-16T02:20:16;21.40;99.90
27559;DHT22;15002;52.028;5.670;2023-07-16T02:22:42;21.30;99.90
27559;DHT22;15002;52.028;5.670;2023-07-16T02:25:08;21.30;99.90
27559;DHT22;15002;52.028;5.670;2023-07-16T02:27:33;21.30;99.90
27559;DHT22;15002;52.028;5.670;2023-07-16T02:29:59;21.10;99.90
27559;DHT22;15002;52.028;5.670;2023-07-16T02:32:25;21.20;99.90
27559;DHT22;15002;52.028;5.670;2023-07-16T02:34:50;21.20;99.90
27559;DHT22;15002;52.028;5.670;2023-07-16T02:37:16;21.00;99.90
27559;DHT22;15002;52.028;5.670;2023-07-16T02:39:43;21.10;99.90
27559;DHT22;15002;52.028;5.670;2023-07-16T02:42:10;21.10;99.90
27559;DHT22;15002;52.028;5.670;2023-07-16T02:44:36;21.10;99.90
27559;DHT22;15002;52.028;5.670;2023-07-16T02:47:10;21.10;99.90
27559;DHT22;15002;52.028;5.670;2023-07-16T02:49:35;21.10;99.90
27559;DHT22;15002;52.028;5.670;2023-07-16T02:52:01;20.90;99.90
27559;DHT22;15002;52.028;5.670;2023-07-16T02:54:27;20.90;99.90
27559;DHT22;15002;52.028;5.670;2023-07-16T02:56:52;21.10;99.90
27559;DHT22;15002;52.028;5.670;2023-07-16T02:59:18;21.10;99.90
27559;DHT22;15002;52.028;5.670;2023-07-16T03:01:44;21.00;99.90
27559;DHT22;15002;52.028;5.670;2023-07-16T03:04:09;20.90;99.90
27559;DHT22;15002;52.028;5.670;2023-07-16T03:06:35;20.90;99.90
27559;DHT22;15002;52.028;5.670;2023-07-16T03:09:01;20.70;99.90
27559;DHT22;15002;52.028;5.670;2023-07-16T03:11:26;20.90;99.90
27559;DHT22;15002;52.028;5.670;2023-07-16T03:13:52;20.90;99.90
27559;DHT22;15002;52.028;5.670;2023-07-16T03:16:18;20.70;99.90
27559;DHT22;15002;52.028;5.670;2023-07-16T03:18:44;20.80;99.90
27559;DHT22;15002;52.028;5.670;2023-07-16T03:21:10;21.00;99.90
27559;DHT22;15002;52.028;5.670;2023-07-16T03:23:36;20.90;99.90
27559;DHT22;15002;52.028;5.670;2023-07-16T03:26:02;20.80;99.90
27559;DHT22;15002;52.028;5.670;2023-07-16T03:28:27;20.70;99.90
27559;DHT22;15002;52.028;5.670;2023-07-16T03:30:53;20.90;99.90
27559;DHT22;15002;52.028;5.670;2023-07-16T03:33:19;20.80;99.90
27559;DHT22;15002;52.028;5.670;2023-07-16T03:35:46;20.80;99.90
27559;DHT22;15002;52.028;5.670;2023-07-16T03:38:13;20.60;99.90
27559;DHT22;15002;52.028;5.670;2023-07-16T03:40:39;20.70;99.90
27559;DHT22;15002;52.028;5.670;2023-07-16T03:43:05;20.60;99.90
27559;DHT22;15002;52.028;5.670;2023-07-16T03:45:31;20.60;99.90
27559;DHT22;15002;52.028;5.670;2023-07-16T03:47:56;20.60;99.90
27559;DHT22;15002;52.028;5.670;2023-07-16T03:50:22;20.50;99.90
27559;DHT22;15002;52.028;5.670;2023-07-16T03:52:48;20.40;99.90
27559;DHT22;15002;52.028;5.670;2023-07-16T03:55:13;20.40;99.90
27559;DHT22;15002;52.028;5.670;2023-07-16T03:57:39;20.40;99.90
27559;DHT22;15002;52.028;5.670;2023-07-16T04:00:05;20.50;99.90
27559;DHT22;15002;52.028;5.670;2023-07-16T04:02:34;20.40;99.90
27559;DHT22;15002;52.028;5.670;2023-07-16T04:05:00;20.40;99.90
27559;DHT22;15002;52.028;5.670;2023-07-16T04:07:26;20.30;99.90
27559;DHT22;15002;52.028;5.670;2023-07-16T04:09:52;20.50;99.90
27559;DHT22;15002;52.028;5.670;2023-07-16T04:12:17;20.50;99.90
27559;DHT22;15002;52.028;5.670;2023-07-16T04:14:43;20.40;99.90
27559;DHT22;15002;52.028;5.670;2023-07-16T04:17:09;20.40;99.90
27559;DHT22;15002;52.028;5.670;2023-07-16T04:19:34;20.60;99.90
27559;DHT22;15002;52.028;5.670;2023-07-16T04:22:00;20.80;99.90
27559;DHT22;15002;52.028;5.670;2023-07-16T04:24:26;20.90;99.90
27559;DHT22;15002;52.028;5.670;2023-07-16T04:26:53;20.90;99.90
27559;DHT22;15002;52.028;5.670;2023-07-16T04:29:18;20.80;99.90
27559;DHT22;15002;52.028;5.670;2023-07-16T04:31:44;21.00;99.90
27559;DHT22;15002;52.028;5.670;2023-07-16T04:34:10;21.00;99.90
27559;DHT22;15002;52.028;5.670;2023-07-16T04:36:35;21.20;99.90
27559;DHT22;15002;52.028;5.670;2023-07-16T04:39:01;21.60;99.90
27559;DHT22;15002;52.028;5.670;2023-07-16T04:41:27;21.80;99.90
27559;DHT22;15002;52.028;5.670;2023-07-16T04:43:53;22.40;99.90
27559;DHT22;15002;52.028;5.670;2023-07-16T04:46:18;22.70;99.50
27559;DHT22;15002;52.028;5.670;2023-07-16T04:48:44;22.90;98.90
27559;DHT22;15002;52.028;5.670;2023-07-16T04:51:10;23.10;98.20
27559;DHT22;15002;52.028;5.670;2023-07-16T04:53:35;23.20;97.90
27559;DHT22;15002;52.028;5.670;2023-07-16T04:56:01;23.00;97.90
27559;DHT22;15002;52.028;5.670;2023-07-16T04:58:26;22.70;98.20
27559;DHT22;15002;52.028;5.670;2023-07-16T05:00:52;22.70;98.00
27559;DHT22;15002;52.028;5.670;2023-07-16T05:03:18;22.60;98.20
27559;DHT22;15002;52.028;5.670;2023-07-16T05:05:43;22.40;98.70
27559;DHT22;15002;52.028;5.670;2023-07-16T05:08:09;22.30;98.50
27559;DHT22;15002;52.028;5.670;2023-07-16T05:10:35;22.40;98.20
27559;DHT22;15002;52.028;5.670;2023-07-16T05:13:00;22.60;97.80
27559;DHT22;15002;52.028;5.670;2023-07-16T05:15:29;22.80;97.40
27559;DHT22;15002;52.028;5.670;2023-07-16T05:17:54;22.90;96.90
27559;DHT22;15002;52.028;5.670;2023-07-16T05:20:23;23.00;97.20
27559;DHT22;15002;52.028;5.670;2023-07-16T05:22:48;22.90;96.60
27559;DHT22;15002;52.028;5.670;2023-07-16T05:25:14;22.90;96.10
27559;DHT22;15002;52.028;5.670;2023-07-16T05:27:40;22.70;96.70
27559;DHT22;15002;52.028;5.670;2023-07-16T05:30:06;22.70;96.70
27559;DHT22;15002;52.028;5.670;2023-07-16T05:32:32;22.90;95.90
27559;DHT22;15002;52.028;5.670;2023-07-16T05:34:57;22.70;96.10
27559;DHT22;15002;52.028;5.670;2023-07-16T05:37:23;22.30;96.50
27559;DHT22;15002;52.028;5.670;2023-07-16T05:39:48;22.40;96.60
27559;DHT22;15002;52.028;5.670;2023-07-16T05:42:14;22.40;96.60
27559;DHT22;15002;52.028;5.670;2023-07-16T05:44:40;22.60;96.10
27559;DHT22;15002;52.028;5.670;2023-07-16T05:47:07;22.60;96.20
27559;DHT22;15002;52.028;5.670;2023-07-16T05:49:33;22.60;96.20
27559;DHT22;15002;52.028;5.670;2023-07-16T05:51:59;22.60;95.80
27559;DHT22;15002;52.028;5.670;2023-07-16T05:54:24;22.40;95.90
27559;DHT22;15002;52.028;5.670;2023-07-16T05:56:50;22.30;96.30
27559;DHT22;15002;52.028;5.670;2023-07-16T05:59:16;22.40;95.70
27559;DHT22;15002;52.028;5.670;2023-07-16T06:01:41;22.40;96.10
27559;DHT22;15002;52.028;5.670;2023-07-16T06:04:07;22.40;96.30
27559;DHT22;15002;52.028;5.670;2023-07-16T06:06:32;22.20;96.70
27559;DHT22;15002;52.028;5.670;2023-07-16T06:08:58;22.40;96.20
27559;DHT22;15002;52.028;5.670;2023-07-16T06:11:24;22.30;96.70
27559;DHT22;15002;52.028;5.670;2023-07-16T06:13:49;22.40;96.70
27559;DHT22;15002;52.028;5.670;2023-07-16T06:16:15;22.50;96.50
27559;DHT22;15002;52.028;5.670;2023-07-16T06:18:40;22.40;96.30
27559;DHT22;15002;52.028;5.670;2023-07-16T06:21:06;22.60;96.20
27559;DHT22;15002;52.028;5.670;2023-07-16T06:23:32;22.70;96.10
27559;DHT22;15002;52.028;5.670;2023-07-16T06:25:57;22.80;95.80
27559;DHT22;15002;52.028;5.670;2023-07-16T06:28:23;22.60;96.30
27559;DHT22;15002;52.028;5.670;2023-07-16T06:30:50;22.70;96.20
27559;DHT22;15002;52.028;5.670;2023-07-16T06:33:17;22.90;96.10
27559;DHT22;15002;52.028;5.670;2023-07-16T06:35:47;23.20;95.20
27559;DHT22;15002;52.028;5.670;2023-07-16T06:38:13;23.30;94.80
27559;DHT22;15002;52.028;5.670;2023-07-16T06:40:39;23.50;94.20
27559;DHT22;15002;52.028;5.670;2023-07-16T06:43:05;23.70;93.90
27559;DHT22;15002;52.028;5.670;2023-07-16T06:45:31;23.70;93.60
27559;DHT22;15002;52.028;5.670;2023-07-16T06:47:56;23.70;93.40
27559;DHT22;15002;52.028;5.670;2023-07-16T06:50:22;23.90;93.20
27559;DHT22;15002;52.028;5.670;2023-07-16T06:52:47;24.10;93.00
27559;DHT22;15002;52.028;5.670;2023-07-16T06:55:13;24.00;92.70
27559;DHT22;15002;52.028;5.670;2023-07-16T06:57:39;24.30;92.30
27559;DHT22;15002;52.028;5.670;2023-07-16T07:00:06;24.80;91.60
27559;DHT22;15002;52.028;5.670;2023-07-16T07:02:32;25.40;90.90
27559;DHT22;15002;52.028;5.670;2023-07-16T07:04:57;26.40;88.70
27559;DHT22;15002;52.028;5.670;2023-07-16T07:07:24;27.10;84.70
27559;DHT22;15002;52.028;5.670;2023-07-16T07:09:50;27.60;82.50
27559;DHT22;15002;52.028;5.670;2023-07-16T07:12:15;28.30;80.80
27559;DHT22;15002;52.028;5.670;2023-07-16T07:14:41;28.50;79.40
27559;DHT22;15002;52.028;5.670;2023-07-16T07:17:07;28.80;77.60
27559;DHT22;15002;52.028;5.670;2023-07-16T07:19:32;29.20;76.80
27559;DHT22;15002;52.028;5.670;2023-07-16T07:21:58;29.60;75.00
27559;DHT22;15002;52.028;5.670;2023-07-16T07:24:24;30.10;74.10
27559;DHT22;15002;52.028;5.670;2023-07-16T07:26:49;29.90;72.70
27559;DHT22;15002;52.028;5.670;2023-07-16T07:29:15;29.60;73.80
27559;DHT22;15002;52.028;5.670;2023-07-16T07:31:41;29.80;73.90
27559;DHT22;15002;52.028;5.670;2023-07-16T07:34:06;29.50;73.60
27559;DHT22;15002;52.028;5.670;2023-07-16T07:36:32;29.10;74.60
27559;DHT22;15002;52.028;5.670;2023-07-16T07:38:58;28.90;74.70
27559;DHT22;15002;52.028;5.670;2023-07-16T07:41:23;28.20;75.90
27559;DHT22;15002;52.028;5.670;2023-07-16T07:43:49;27.70;77.60
27559;DHT22;15002;52.028;5.670;2023-07-16T07:46:15;27.30;78.50
27559;DHT22;15002;52.028;5.670;2023-07-16T07:48:40;26.40;81.30
27559;DHT22;15002;52.028;5.670;2023-07-16T07:51:06;26.00;83.20
27559;DHT22;15002;52.028;5.670;2023-07-16T07:53:31;25.80;84.10
27559;DHT22;15002;52.028;5.670;2023-07-16T07:55:57;25.70;83.30
27559;DHT22;15002;52.028;5.670;2023-07-16T07:58:23;25.50;84.30
27559;DHT22;15002;52.028;5.670;2023-07-16T08:00:48;25.40;85.10
27559;DHT22;15002;52.028;5.670;2023-07-16T08:03:14;25.10;85.60
27559;DHT22;15002;52.028;5.670;2023-07-16T08:05:40;25.20;85.10
27559;DHT22;15002;52.028;5.670;2023-07-16T08:08:05;25.20;85.40
27559;DHT22;15002;52.028;5.670;2023-07-16T08:10:31;25.00;86.40
27559;DHT22;15002;52.028;5.670;2023-07-16T08:12:57;24.90;86.00
27559;DHT22;15002;52.028;5.670;2023-07-16T08:15:22;24.60;87.80
27559;DHT22;15002;52.028;5.670;2023-07-16T08:17:48;24.60;88.30
27559;DHT22;15002;52.028;5.670;2023-07-16T08:20:14;24.60;88.40
27559;DHT22;15002;52.028;5.670;2023-07-16T08:22:40;24.80;89.20
27559;DHT22;15002;52.028;5.670;2023-07-16T08:25:06;24.80;88.80
27559;DHT22;15002;52.028;5.670;2023-07-16T08:27:32;24.70;89.70
27559;DHT22;15002;52.028;5.670;2023-07-16T08:29:58;24.60;90.10
27559;DHT22;15002;52.028;5.670;2023-07-16T08:32:23;24.80;89.00
27559;DHT22;15002;52.028;5.670;2023-07-16T08:34:49;24.30;89.50
27559;DHT22;15002;52.028;5.670;2023-07-16T08:37:15;24.30;89.70
27559;DHT22;15002;52.028;5.670;2023-07-16T08:39:41;24.40;89.60
27559;DHT22;15002;52.028;5.670;2023-07-16T08:42:09;24.30;90.10
27559;DHT22;15002;52.028;5.670;2023-07-16T08:44:37;24.20;90.30
27559;DHT22;15002;52.028;5.670;2023-07-16T08:47:03;24.10;90.30
27559;DHT22;15002;52.028;5.670;2023-07-16T08:49:30;24.10;90.60
27559;DHT22;15002;52.028;5.670;2023-07-16T08:51:56;23.90;90.90
27559;DHT22;15002;52.028;5.670;2023-07-16T08:54:22;23.80;91.30
27559;DHT22;15002;52.028;5.670;2023-07-16T08:56:49;23.80;91.70
27559;DHT22;15002;52.028;5.670;2023-07-16T08:59:15;23.80;91.30
27559;DHT22;15002;52.028;5.670;2023-07-16T09:01:41;23.60;91.70
27559;DHT22;15002;52.028;5.670;2023-07-16T09:04:07;23.70;91.60
27559;DHT22;15002;52.028;5.670;2023-07-16T09:06:33;24.00;91.80
27559;DHT22;15002;52.028;5.670;2023-07-16T09:08:59;24.00;91.30
27559;DHT22;15002;52.028;5.670;2023-07-16T09:11:24;23.90;91.50
27559;DHT22;15002;52.028;5.670;2023-07-16T09:13:50;24.20;91.20
27559;DHT22;15002;52.028;5.670;2023-07-16T09:16:19;24.30;90.90
27559;DHT22;15002;52.028;5.670;2023-07-16T09:18:46;24.30;90.80
27559;DHT22;15002;52.028;5.670;2023-07-16T09:21:12;23.90;91.30
27559;DHT22;15002;52.028;5.670;2023-07-16T09:23:38;23.90;91.30
27559;DHT22;15002;52.028;5.670;2023-07-16T09:26:03;23.80;91.70
27559;DHT22;15002;52.028;5.670;2023-07-16T09:28:33;23.80;91.70
27559;DHT22;15002;52.028;5.670;2023-07-16T09:31:05;23.70;91.50
27559;DHT22;15002;52.028;5.670;2023-07-16T09:33:32;23.70;91.60
27559;DHT22;15002;52.028;5.670;2023-07-16T09:35:58;23.80;91.50
27559;DHT22;15002;52.028;5.670;2023-07-16T09:38:24;23.90;91.40
27559;DHT22;15002;52.028;5.670;2023-07-16T09:40:51;24.00;91.50
27559;DHT22;15002;52.028;5.670;2023-07-16T09:43:18;24.40;91.00
27559;DHT22;15002;52.028;5.670;2023-07-16T09:45:43;24.30;91.00
27559;DHT22;15002;52.028;5.670;2023-07-16T09:48:09;24.40;91.30
27559;DHT22;15002;52.028;5.670;2023-07-16T09:50:36;24.60;91.10
27559;DHT22;15002;52.028;5.670;2023-07-16T09:53:04;24.90;90.30
27559;DHT22;15002;52.028;5.670;2023-07-16T09:55:35;24.90;90.10
27559;DHT22;15002;52.028;5.670;2023-07-16T09:58:05;24.90;90.40
27559;DHT22;15002;52.028;5.670;2023-07-16T10:00:32;25.20;90.00
27559;DHT22;15002;52.028;5.670;2023-07-16T10:02:59;25.20;89.60
27559;DHT22;15002;52.028;5.670;2023-07-16T10:05:26;25.30;88.90
27559;DHT22;15002;52.028;5.670;2023-07-16T10:10:19;25.20;89.40
27559;DHT22;15002;52.028;5.670;2023-07-16T10:12:56;25.00;90.10
27559;DHT22;15002;52.028;5.670;2023-07-16T10:15:29;25.10;90.10
27559;DHT22;15002;52.028;5.670;2023-07-16T10:17:55;25.30;90.00
27559;DHT22;15002;52.028;5.670;2023-07-16T10:20:35;25.30;89.10
27559;DHT22;15002;52.028;5.670;2023-07-16T10:23:12;24.90;90.00
27559;DHT22;15002;52.028;5.670;2023-07-16T10:25:57;24.50;90.60
27559;DHT22;15002;52.028;5.670;2023-07-16T10:28:23;24.40;90.90
27559;DHT22;15002;52.028;5.670;2023-07-16T10:30:50;24.40;91.00
27559;DHT22;15002;52.028;5.670;2023-07-16T10:33:15;24.40;91.20
27559;DHT22;15002;52.028;5.670;2023-07-16T10:35:42;24.50;91.20
27559;DHT22;15002;52.028;5.670;2023-07-16T10:38:08;24.50;91.00
27559;DHT22;15002;52.028;5.670;2023-07-16T10:40:38;24.40;91.20
27559;DHT22;15002;52.028;5.670;2023-07-16T10:43:06;24.50;91.30
27559;DHT22;15002;52.028;5.670;2023-07-16T10:45:32;24.70;90.70
27559;DHT22;15002;52.028;5.670;2023-07-16T10:47:57;24.60;90.80
27559;DHT22;15002;52.028;5.670;2023-07-16T10:50:23;24.60;90.70
27559;DHT22;15002;52.028;5.670;2023-07-16T10:52:53;24.50;90.70
27559;DHT22;15002;52.028;5.670;2023-07-16T10:55:19;24.70;90.60
27559;DHT22;15002;52.028;5.670;2023-07-16T10:57:47;24.50;90.80
27559;DHT22;15002;52.028;5.670;2023-07-16T11:00:15;24.20;91.10
27559;DHT22;15002;52.028;5.670;2023-07-16T11:02:41;24.00;91.40
27559;DHT22;15002;52.028;5.670;2023-07-16T11:05:13;24.00;91.50
27559;DHT22;15002;52.028;5.670;2023-07-16T11:07:51;24.00;91.80
27559;DHT22;15002;52.028;5.670;2023-07-16T11:10:17;24.20;91.80
27559;DHT22;15002;52.028;5.670;2023-07-16T11:12:43;24.20;91.70
27559;DHT22;15002;52.028;5.670;2023-07-16T11:15:10;24.10;91.60
27559;DHT22;15002;52.028;5.670;2023-07-16T11:17:38;24.30;91.70
27559;DHT22;15002;52.028;5.670;2023-07-16T11:20:08;24.20;91.70
27559;DHT22;15002;52.028;5.670;2023-07-16T11:22:37;24.30;91.60
27559;DHT22;15002;52.028;5.670;2023-07-16T11:25:04;24.50;91.80
27559;DHT22;15002;52.028;5.670;2023-07-16T11:27:32;24.70;91.60
27559;DHT22;15002;52.028;5.670;2023-07-16T11:30:00;24.60;91.50
27559;DHT22;15002;52.028;5.670;2023-07-16T11:32:36;24.80;91.20
27559;DHT22;15002;52.028;5.670;2023-07-16T11:35:04;24.70;91.60
27559;DHT22;15002;52.028;5.670;2023-07-16T11:37:31;24.90;91.30
27559;DHT22;15002;52.028;5.670;2023-07-16T11:40:02;25.10;91.00
27559;DHT22;15002;52.028;5.670;2023-07-16T11:42:33;25.20;91.00
27559;DHT22;15002;52.028;5.670;2023-07-16T11:44:59;25.20;90.70
27559;DHT22;15002;52.028;5.670;2023-07-16T11:47:26;25.20;90.80
27559;DHT22;15002;52.028;5.670;2023-07-16T11:49:52;25.50;91.10
27559;DHT22;15002;52.028;5.670;2023-07-16T11:52:26;25.60;90.60
27559;DHT22;15002;52.028;5.670;2023-07-16T11:54:53;25.80;90.30
27559;DHT22;15002;52.028;5.670;2023-07-16T11:57:19;25.90;90.30
27559;DHT22;15002;52.028;5.670;2023-07-16T11:59:44;26.10;89.80
27559;DHT22;15002;52.028;5.670;2023-07-16T12:02:10;26.10;90.00
27559;DHT22;15002;52.028;5.670;2023-07-16T12:04:36;26.00;89.00
27559;DHT22;15002;52.028;5.670;2023-07-16T12:07:02;25.60;89.40
27559;DHT22;15002;52.028;5.670;2023-07-16T12:09:28;25.40;90.10
27559;DHT22;15002;52.028;5.670;2023-07-16T12:11:53;25.30;90.50
27559;DHT22;15002;52.028;5.670;2023-07-16T12:14:19;25.50;90.20
27559;DHT22;15002;52.028;5.670;2023-07-16T12:16:45;25.30;90.70
27559;DHT22;15002;52.028;5.670;2023-07-16T12:19:10;25.10;90.90
27559;DHT22;15002;52.028;5.670;2023-07-16T12:21:36;25.10;91.10
27559;DHT22;15002;52.028;5.670;2023-07-16T12:24:02;24.90;91.80
27559;DHT22;15002;52.028;5.670;2023-07-16T12:26:28;24.90;93.50
27559;DHT22;15002;52.028;5.670;2023-07-16T12:28:54;24.90;95.90
27559;DHT22;15002;52.028;5.670;2023-07-16T12:31:20;25.00;94.90
27559;DHT22;15002;52.028;5.670;2023-07-16T12:33:47;25.00;94.60
27559;DHT22;15002;52.028;5.670;2023-07-16T12:36:13;24.90;94.30
27559;DHT22;15002;52.028;5.670;2023-07-16T12:38:39;25.00;93.80
27559;DHT22;15002;52.028;5.670;2023-07-16T12:41:06;24.90;93.90
27559;DHT22;15002;52.028;5.670;2023-07-16T12:43:32;25.10;93.90
27559;DHT22;15002;52.028;5.670;2023-07-16T12:46:00;25.30;93.70
27559;DHT22;15002;52.028;5.670;2023-07-16T12:48:28;25.60;93.20
27559;DHT22;15002;52.028;5.670;2023-07-16T12:50:54;25.60;92.90
27559;DHT22;15002;52.028;5.670;2023-07-16T12:53:20;25.80;93.00
27559;DHT22;15002;52.028;5.670;2023-07-16T12:55:45;25.80;92.50
27559;DHT22;15002;52.028;5.670;2023-07-16T12:58:11;25.80;92.30
27559;DHT22;15002;52.028;5.670;2023-07-16T13:00:36;25.90;92.00
27559;DHT22;15002;52.028;5.670;2023-07-16T13:03:02;25.80;92.00
27559;DHT22;15002;52.028;5.670;2023-07-16T13:05:28;25.60;91.70
27559;DHT22;15002;52.028;5.670;2023-07-16T13:07:54;25.60;91.70
27559;DHT22;15002;52.028;5.670;2023-07-16T13:10:19;25.40;91.90
27559;DHT22;15002;52.028;5.670;2023-07-16T13:12:45;25.40;91.60
27559;DHT22;15002;52.028;5.670;2023-07-16T13:15:10;25.20;91.90
27559;DHT22;15002;52.028;5.670;2023-07-16T13:17:36;25.20;92.30
27559;DHT22;15002;52.028;5.670;2023-07-16T13:20:03;25.30;92.40
27559;DHT22;15002;52.028;5.670;2023-07-16T13:22:29;25.70;92.10
27559;DHT22;15002;52.028;5.670;2023-07-16T13:24:54;25.80;91.70
27559;DHT22;15002;52.028;5.670;2023-07-16T13:27:21;25.70;92.20
27559;DHT22;15002;52.028;5.670;2023-07-16T13:29:47;25.80;91.90
27559;DHT22;15002;52.028;5.670;2023-07-16T13:32:13;25.60;92.20
27559;DHT22;15002;52.028;5.670;2023-07-16T13:34:38;25.70;92.20
27559;DHT22;15002;52.028;5.670;2023-07-16T13:37:04;25.50;92.60
27559;DHT22;15002;52.028;5.670;2023-07-16T13:39:30;25.70;91.50
27559;DHT22;15002;52.028;5.670;2023-07-16T13:41:55;25.50;91.50
27559;DHT22;15002;52.028;5.670;2023-07-16T13:44:21;25.50;92.00
27559;DHT22;15002;52.028;5.670;2023-07-16T13:46:47;25.40;91.70
27559;DHT22;15002;52.028;5.670;2023-07-16T13:49:13;25.50;91.00
27559;DHT22;15002;52.028;5.670;2023-07-16T13:51:39;25.50;91.00
27559;DHT22;15002;52.028;5.670;2023-07-16T13:54:05;25.70;90.70
27559;DHT22;15002;52.028;5.670;2023-07-16T13:56:30;25.80;90.60
27559;DHT22;15002;52.028;5.670;2023-07-16T13:58:56;25.70;90.20
27559;DHT22;15002;52.028;5.670;2023-07-16T14:01:22;25.80;90.20
27559;DHT22;15002;52.028;5.670;2023-07-16T14:03:48;25.60;90.00
27559;DHT22;15002;52.028;5.670;2023-07-16T14:06:14;25.60;90.30
27559;DHT22;15002;52.028;5.670;2023-07-16T14:08:39;25.60;89.20
27559;DHT22;15002;52.028;5.670;2023-07-16T14:11:05;25.70;90.10
27559;DHT22;15002;52.028;5.670;2023-07-16T14:13:31;26.00;89.60
27559;DHT22;15002;52.028;5.670;2023-07-16T14:15:56;26.10;90.00
27559;DHT22;15002;52.028;5.670;2023-07-16T14:18:22;26.20;87.30
27559;DHT22;15002;52.028;5.670;2023-07-16T14:20:47;26.00;87.10
27559;DHT22;15002;52.028;5.670;2023-07-16T14:23:13;26.20;87.00
27559;DHT22;15002;52.028;5.670;2023-07-16T14:25:39;26.00;87.30
27559;DHT22;15002;52.028;5.670;2023-07-16T14:28:04;26.00;86.80
27559;DHT22;15002;52.028;5.670;2023-07-16T14:30:30;26.20;87.20
27559;DHT22;15002;52.028;5.670;2023-07-16T14:32:56;26.40;86.50
27559;DHT22;15002;52.028;5.670;2023-07-16T14:35:22;26.50;85.10
27559;DHT22;15002;52.028;5.670;2023-07-16T14:37:48;26.20;85.00
27559;DHT22;15002;52.028;5.670;2023-07-16T14:40:13;26.20;84.60
27559;DHT22;15002;52.028;5.670;2023-07-16T14:42:39;26.00;84.60
27559;DHT22;15002;52.028;5.670;2023-07-16T14:45:05;26.10;84.50
27559;DHT22;15002;52.028;5.670;2023-07-16T14:47:33;26.10;86.60
27559;DHT22;15002;52.028;5.670;2023-07-16T14:49:59;26.10;85.30
27559;DHT22;15002;52.028;5.670;2023-07-16T14:52:24;25.90;86.10
27559;DHT22;15002;52.028;5.670;2023-07-16T14:54:50;25.80;86.50
27559;DHT22;15002;52.028;5.670;2023-07-16T14:57:16;26.10;86.10
27559;DHT22;15002;52.028;5.670;2023-07-16T14:59:42;26.30;85.70
27559;DHT22;15002;52.028;5.670;2023-07-16T15:02:09;26.20;85.60
27559;DHT22;15002;52.028;5.670;2023-07-16T15:04:34;26.10;85.40
27559;DHT22;15002;52.028;5.670;2023-07-16T15:07:00;25.90;86.40
27559;DHT22;15002;52.028;5.670;2023-07-16T15:09:26;25.80;86.00
27559;DHT22;15002;52.028;5.670;2023-07-16T15:11:51;25.80;86.50
27559;DHT22;15002;52.028;5.670;2023-07-16T15:14:17;25.90;87.40
27559;DHT22;15002;52.028;5.670;2023-07-16T15:16:42;26.00;86.80
27559;DHT22;15002;52.028;5.670;2023-07-16T15:19:09;26.20;85.20
27559;DHT22;15002;52.028;5.670;2023-07-16T15:21:35;26.30;85.50
27559;DHT22;15002;52.028;5.670;2023-07-16T15:24:04;26.60;84.90
27559;DHT22;15002;52.028;5.670;2023-07-16T15:26:30;26.60;84.90
27559;DHT22;15002;52.028;5.670;2023-07-16T15:28:56;26.40;85.30
27559;DHT22;15002;52.028;5.670;2023-07-16T15:31:22;26.60;84.50